Time;durP1;ratioP1;P1;durP2;ratioP2;P2;SDS_P1;SDS_P2;PMS_P1;PMS_P2;Temp;Humidity;BMP_temperature;BMP_pressure;BME280_temperature;BME280_humidity;BME280_pressure;Samples;Min_cycle;Max_cycle;Signal;HPM_P1;HPM_P2
2023/03/22 00:01:18;;;;;;;5.45;4.35;;;12.90;66.90;;;;;;4981634;28;20244;-62
2023/03/22 00:03:44;;;;;;;4.80;4.38;;;13.00;67.10;;;;;;4982018;28;20042;-62
2023/03/22 00:06:11;;;;;;;5.07;4.57;;;13.00;67.10;;;;;;4982891;28;20237;-62
2023/03/22 00:08:37;;;;;;;5.60;4.72;;;13.00;67.20;;;;;;4978795;28;20038;-62
2023/03/22 00:11:03;;;;;;;5.97;4.70;;;13.00;67.30;;;;;;4983037;28;20037;-62
2023/03/22 00:13:30;;;;;;;4.93;4.43;;;13.00;67.10;;;;;;4982151;28;20078;-63
2023/03/22 00:15:56;;;;;;;4.75;4.35;;;13.00;67.10;;;;;;4983189;28;20038;-63
2023/03/22 00:18:22;;;;;;;5.10;4.55;;;12.90;67.20;;;;;;4983170;28;20057;-62
2023/03/22 00:20:56;;;;;;;5.75;4.20;;;12.90;67.30;;;;;;4979685;28;20037;-63
2023/03/22 00:23:23;;;;;;;6.20;4.90;;;12.90;67.50;;;;;;4983901;28;20474;-62
2023/03/22 00:25:49;;;;;;;6.75;4.55;;;12.90;67.30;;;;;;4982155;28;20043;-62
2023/03/22 00:28:15;;;;;;;8.02;5.00;;;12.80;67.40;;;;;;4982941;28;20038;-62
2023/03/22 00:30:42;;;;;;;6.30;4.70;;;12.80;68.20;;;;;;4980548;28;20038;-62
2023/03/22 00:33:08;;;;;;;6.15;5.25;;;12.80;67.30;;;;;;4981139;28;20042;-63
2023/03/22 00:35:34;;;;;;;6.15;5.00;;;12.80;67.40;;;;;;4983156;28;20434;-62
2023/03/22 00:38:04;;;;;;;6.43;5.40;;;12.70;67.40;;;;;;4983004;28;20081;-63
2023/03/22 00:40:31;;;;;;;7.18;6.00;;;12.70;67.60;;;;;;4977381;28;20097;-63
2023/03/22 00:42:57;;;;;;;6.10;5.50;;;12.60;67.80;;;;;;4982709;28;20445;-62
2023/03/22 00:45:23;;;;;;;6.18;5.57;;;12.60;68.00;;;;;;4984251;28;20038;-63
2023/03/22 00:47:48;;;;;;;6.78;5.35;;;12.60;68.30;;;;;;4982754;28;20465;-63
2023/03/22 00:50:14;;;;;;;6.07;5.47;;;12.50;68.30;;;;;;4980274;28;20042;-61
2023/03/22 00:52:40;;;;;;;6.45;5.78;;;12.50;68.50;;;;;;4983375;28;20045;-63
2023/03/22 00:55:06;;;;;;;7.40;5.50;;;12.50;68.40;;;;;;4982948;28;20037;-63
2023/03/22 00:57:32;;;;;;;5.78;5.03;;;12.50;68.40;;;;;;4983543;28;20030;-62
2023/03/22 00:59:58;;;;;;;5.97;5.38;;;12.50;68.50;;;;;;4983084;28;20727;-62
2023/03/22 01:02:28;;;;;;;5.25;4.75;;;12.60;68.60;;;;;;4984779;28;20045;-60
2023/03/22 01:04:54;;;;;;;7.40;5.43;;;12.60;68.70;;;;;;4986389;28;20042;-61
2023/03/22 01:07:22;;;;;;;6.93;5.80;;;12.60;68.70;;;;;;4985896;28;20034;-62
2023/03/22 01:09:49;;;;;;;6.60;5.60;;;12.60;68.60;;;;;;4981267;28;20761;-62
2023/03/22 01:12:16;;;;;;;6.45;5.53;;;12.60;68.70;;;;;;4994962;28;20038;-60
2023/03/22 01:14:41;;;;;;;6.32;5.50;;;12.60;68.80;;;;;;4975859;28;20062;-62
2023/03/22 01:17:07;;;;;;;6.93;5.40;;;12.60;68.90;;;;;;4981493;28;20105;-61
2023/03/22 01:19:34;;;;;;;7.28;5.68;;;12.60;69.00;;;;;;4984250;28;20087;-62
2023/03/22 01:22:00;;;;;;;6.07;5.47;;;12.60;69.00;;;;;;4984094;28;20035;-60
2023/03/22 01:24:26;;;;;;;5.97;5.38;;;12.60;68.90;;;;;;4984818;28;20034;-63
2023/03/22 01:26:51;;;;;;;5.82;5.32;;;12.60;68.80;;;;;;4985407;28;20122;-63
2023/03/22 01:29:17;;;;;;;6.47;5.82;;;12.60;68.80;;;;;;4983371;28;20065;-62
2023/03/22 01:31:43;;;;;;;6.30;5.60;;;12.60;68.80;;;;;;4982866;28;20520;-61
2023/03/22 01:34:09;;;;;;;6.85;5.53;;;12.60;68.90;;;;;;4982064;28;20434;-63
2023/03/22 01:36:35;;;;;;;7.35;5.90;;;12.50;68.80;;;;;;4985711;28;20528;-62
2023/03/22 01:39:01;;;;;;;7.30;6.25;;;12.50;68.70;;;;;;4982756;28;20485;-60
2023/03/22 01:41:27;;;;;;;7.72;6.35;;;12.50;68.60;;;;;;4981728;28;20593;-62
2023/03/22 01:44:14;;;;;;;7.13;5.97;;;12.50;68.60;;;;;;4979159;28;20042;-61
2023/03/22 01:46:41;;;;;;;5.82;5.32;;;12.40;69.20;;;;;;4983977;28;20038;-61
2023/03/22 01:49:20;;;;;;;7.65;5.97;;;12.30;68.60;;;;;;4985026;28;20038;-63
2023/03/22 01:51:48;;;;;;;6.68;6.03;;;12.20;69.30;;;;;;4983219;28;20042;-63
2023/03/22 01:54:19;;;;;;;7.22;5.97;;;12.20;69.00;;;;;;4983960;28;20038;-61
2023/03/22 01:56:46;;;;;;;6.65;5.75;;;12.20;69.10;;;;;;4984322;28;20038;-62
2023/03/22 01:59:13;;;;;;;7.03;6.32;;;12.20;69.20;;;;;;4983777;28;20031;-61
2023/03/22 02:01:39;;;;;;;7.70;6.60;;;12.10;69.30;;;;;;4985743;28;20046;-63
2023/03/22 02:04:15;;;;;;;7.22;6.50;;;12.10;69.20;;;;;;4982274;28;20057;-61
2023/03/22 02:06:41;;;;;;;8.50;6.90;;;12.10;69.70;;;;;;4983684;28;20041;-62
2023/03/22 02:09:09;;;;;;;7.25;6.45;;;12.10;69.40;;;;;;4981556;28;20652;-62
2023/03/22 02:11:47;;;;;;;7.95;6.95;;;12.00;69.30;;;;;;4984351;28;20077;-63
2023/03/22 02:14:50;;;;;;;7.78;6.95;;;11.90;69.70;;;;;;4982720;28;20584;-62
2023/03/22 02:17:15;;;;;;;9.02;7.05;;;11.90;70.10;;;;;;4985020;28;20042;-60
2023/03/22 02:20:09;;;;;;;7.90;6.72;;;11.80;69.40;;;;;;4984610;28;20473;-62
2023/03/22 02:23:17;;;;;;;7.47;6.72;;;11.70;69.90;;;;;;4984884;28;20057;-63
2023/03/22 02:25:51;;;;;;;9.35;6.63;;;11.70;70.20;;;;;;4983206;28;20034;-62
2023/03/22 02:28:20;;;;;;;9.48;6.78;;;11.60;69.70;;;;;;4985641;28;20039;-62
2023/03/22 02:31:13;;;;;;;7.28;6.55;;;11.50;69.50;;;;;;4985192;28;20453;-63
2023/03/22 02:33:56;;;;;;;8.40;7.00;;;11.50;70.00;;;;;;4986591;28;20039;-63
2023/03/22 02:36:54;;;;;;;9.65;6.45;;;11.40;70.00;;;;;;4986727;28;20061;-63
2023/03/22 02:39:28;;;;;;;9.68;6.30;;;11.30;70.30;;;;;;4999101;28;20510;-62
2023/03/22 02:42:05;;;;;;;7.30;6.60;;;11.30;69.50;;;;;;4984651;28;20498;-61
2023/03/22 02:44:55;;;;;;;7.30;6.60;;;11.20;69.90;;;;;;4979999;28;20053;-63
2023/03/22 02:47:29;;;;;;;9.02;6.95;;;11.20;70.40;;;;;;4985558;28;20034;-62
2023/03/22 02:50:03;;;;;;;9.47;6.77;;;11.10;69.90;;;;;;4982673;28;20132;-63
2023/03/22 02:52:44;;;;;;;7.22;6.38;;;11.00;69.90;;;;;;4982519;28;20133;-63
2023/03/22 02:55:34;;;;;;;7.95;7.00;;;11.00;70.40;;;;;;4985675;28;20161;-62
2023/03/22 02:58:11;;;;;;;7.10;6.40;;;10.90;70.20;;;;;;4984665;28;20038;-63
2023/03/22 03:00:38;;;;;;;7.88;6.93;;;10.90;69.90;;;;;;4982157;28;20038;-63
2023/03/22 03:03:11;;;;;;;8.98;7.05;;;10.80;70.00;;;;;;4979124;28;20034;-63
2023/03/22 03:05:43;;;;;;;8.93;6.70;;;10.80;70.40;;;;;;4983169;28;20030;-62
2023/03/22 03:08:11;;;;;;;8.55;6.90;;;10.70;70.40;;;;;;4980833;28;20518;-60
2023/03/22 03:10:39;;;;;;;7.32;6.63;;;10.70;70.50;;;;;;4981676;28;20069;-63
2023/03/22 03:13:07;;;;;;;10.35;7.35;;;10.60;70.50;;;;;;4982606;28;20034;-62
2023/03/22 03:15:34;;;;;;;8.23;7.00;;;10.60;70.70;;;;;;4980559;28;20658;-62
2023/03/22 03:18:43;;;;;;;9.77;6.90;;;10.50;70.60;;;;;;4980624;28;20518;-63
2023/03/22 03:21:15;;;;;;;8.45;6.50;;;10.50;71.10;;;;;;4920627;29;20044;-62
2023/03/22 03:23:51;;;;;;;11.25;7.22;;;10.40;70.60;;;;;;4975729;28;20555;-62
2023/03/22 03:26:40;;;;;;;8.63;7.07;;;10.30;70.50;;;;;;4982303;28;20401;-62
2023/03/22 03:29:21;;;;;;;9.02;7.18;;;10.30;71.30;;;;;;4981462;28;20030;-63
2023/03/22 03:32:09;;;;;;;9.88;7.45;;;10.30;70.90;;;;;;4981326;28;20049;-60
2023/03/22 03:34:44;;;;;;;8.27;7.38;;;10.20;71.30;;;;;;4980851;28;20125;-61
2023/03/22 03:37:22;;;;;;;9.38;7.45;;;10.20;71.10;;;;;;4978461;28;20057;-62
2023/03/22 03:39:58;;;;;;;7.75;6.93;;;10.10;71.30;;;;;;4982317;28;20426;-62
2023/03/22 03:42:26;;;;;;;7.90;7.05;;;10.10;71.30;;;;;;4980583;28;20043;-61
2023/03/22 03:44:52;;;;;;;8.55;7.63;;;10.00;71.00;;;;;;4983143;28;20038;-61
2023/03/22 03:47:18;;;;;;;9.20;7.55;;;9.90;71.10;;;;;;4982631;28;20037;-62
2023/03/22 03:49:43;;;;;;;10.27;8.05;;;9.90;71.40;;;;;;4984222;28;20158;-61
2023/03/22 03:52:09;;;;;;;8.77;6.75;;;9.90;71.60;;;;;;4981687;28;20042;-62
2023/03/22 03:54:35;;;;;;;7.53;6.45;;;9.80;71.60;;;;;;4980946;28;20527;-62
2023/03/22 03:57:00;;;;;;;7.70;6.90;;;9.80;71.80;;;;;;4983138;28;20085;-61
2023/03/22 03:59:26;;;;;;;8.10;7.00;;;9.70;71.80;;;;;;4984092;28;20269;-60
2023/03/22 04:01:51;;;;;;;11.18;7.13;;;9.60;71.60;;;;;;4978202;28;20080;-62
2023/03/22 04:04:25;;;;;;;9.25;7.53;;;9.60;71.60;;;;;;4982483;28;20518;-62
2023/03/22 04:06:55;;;;;;;10.00;8.02;;;9.60;71.90;;;;;;4982150;28;20046;-62
2023/03/22 04:09:23;;;;;;;8.68;7.72;;;9.50;72.00;;;;;;4980724;28;20578;-62
2023/03/22 04:11:48;;;;;;;9.38;8.15;;;9.40;71.90;;;;;;4982385;28;20053;-61
2023/03/22 04:14:14;;;;;;;10.07;8.13;;;9.40;72.20;;;;;;4982923;28;20038;-62
2023/03/22 04:16:40;;;;;;;10.38;7.78;;;9.40;72.80;;;;;;4981394;28;20049;-62
2023/03/22 04:19:05;;;;;;;8.40;7.18;;;9.30;72.80;;;;;;4981420;28;20290;-62
2023/03/22 04:21:31;;;;;;;9.15;7.60;;;9.30;72.90;;;;;;4981568;28;20034;-60
2023/03/22 04:23:56;;;;;;;8.57;7.07;;;9.20;72.90;;;;;;4981578;28;20046;-60
2023/03/22 04:26:22;;;;;;;8.55;7.65;;;9.20;73.10;;;;;;4980078;28;20030;-61
2023/03/22 04:28:48;;;;;;;9.38;8.00;;;9.10;73.10;;;;;;4980167;28;20035;-62
2023/03/22 04:31:13;;;;;;;15.20;7.22;;;9.10;73.20;;;;;;4984315;28;20042;-62
2023/03/22 04:33:39;;;;;;;7.78;6.55;;;9.10;73.40;;;;;;4985866;28;20113;-62
2023/03/22 04:36:14;;;;;;;8.93;6.75;;;9.00;73.30;;;;;;4986111;28;20372;-62
2023/03/22 04:38:40;;;;;;;6.97;6.10;;;9.00;73.50;;;;;;4981966;28;20097;-61
2023/03/22 04:41:06;;;;;;;8.35;6.18;;;8.90;73.20;;;;;;4973786;28;20481;-63
2023/03/22 04:43:33;;;;;;;9.20;6.53;;;8.90;73.20;;;;;;4980201;28;20435;-62
2023/03/22 04:46:03;;;;;;;8.15;6.78;;;8.90;73.20;;;;;;4980375;28;20125;-60
2023/03/22 04:48:28;;;;;;;8.10;6.82;;;8.80;73.50;;;;;;4979281;28;20034;-61
2023/03/22 04:50:55;;;;;;;9.18;6.35;;;8.70;73.70;;;;;;4981003;28;20057;-62
2023/03/22 04:53:26;;;;;;;8.88;7.00;;;8.70;74.80;;;;;;4982858;28;20038;-62
2023/03/22 04:55:55;;;;;;;15.10;10.45;;;8.60;74.20;;;;;;4983768;28;20383;-62
2023/03/22 04:58:25;;;;;;;15.93;11.07;;;8.60;74.50;;;;;;4983589;28;20068;-62
2023/03/22 05:00:52;;;;;;;14.98;11.35;;;8.60;74.40;;;;;;4985321;28;20125;-63
2023/03/22 05:03:19;;;;;;;22.20;15.40;;;8.60;74.30;;;;;;4982062;28;20061;-63
2023/03/22 05:05:55;;;;;;;19.55;14.65;;;8.60;74.20;;;;;;4982158;28;20041;-62
2023/03/22 05:08:23;;;;;;;18.20;12.23;;;8.50;74.20;;;;;;4983958;28;20030;-62
2023/03/22 05:10:51;;;;;;;17.25;12.00;;;8.60;74.00;;;;;;4982672;28;20034;-61
2023/03/22 05:13:17;;;;;;;12.45;10.18;;;8.50;73.90;;;;;;4982185;28;20069;-61
2023/03/22 05:15:43;;;;;;;18.25;13.60;;;8.50;74.00;;;;;;4982279;28;20068;-60
2023/03/22 05:18:08;;;;;;;16.73;12.63;;;8.50;74.40;;;;;;4982441;28;20464;-63
2023/03/22 05:20:35;;;;;;;15.65;11.65;;;8.40;74.60;;;;;;4982700;28;20068;-61
2023/03/22 05:23:01;;;;;;;16.40;11.32;;;8.40;74.70;;;;;;4982255;28;20509;-62
2023/03/22 05:25:27;;;;;;;12.82;9.93;;;8.40;74.60;;;;;;4978271;28;20080;-62
2023/03/22 05:27:53;;;;;;;12.75;9.43;;;8.30;74.60;;;;;;4983613;28;20034;-62
2023/03/22 05:30:19;;;;;;;12.98;10.05;;;8.30;74.60;;;;;;4985684;28;20066;-62
2023/03/22 05:32:46;;;;;;;12.48;9.32;;;8.30;74.50;;;;;;4987971;28;20367;-62
2023/03/22 05:35:12;;;;;;;12.35;8.50;;;8.30;74.60;;;;;;4987175;28;20138;-62
2023/03/22 05:37:38;;;;;;;11.80;8.98;;;8.30;75.10;;;;;;5002681;28;20042;-61
2023/03/22 05:40:08;;;;;;;11.80;8.60;;;8.30;75.30;;;;;;4986985;28;20476;-62
2023/03/22 05:42:35;;;;;;;13.98;8.73;;;8.30;75.30;;;;;;4986146;28;20501;-61
2023/03/22 05:45:01;;;;;;;10.15;8.60;;;8.20;75.40;;;;;;4989101;28;20042;-60
2023/03/22 05:47:26;;;;;;;13.32;9.27;;;8.20;75.60;;;;;;4989505;28;20061;-62
2023/03/22 05:49:52;;;;;;;10.45;8.50;;;8.20;75.80;;;;;;4988769;28;20058;-62
2023/03/22 05:52:17;;;;;;;13.57;8.80;;;8.20;75.80;;;;;;4987076;28;20038;-62
2023/03/22 05:54:43;;;;;;;11.25;9.20;;;8.20;75.80;;;;;;4987906;28;20117;-63
2023/03/22 05:57:09;;;;;;;14.65;9.73;;;8.20;76.60;;;;;;4987234;28;20398;-62
2023/03/22 05:59:35;;;;;;;13.88;9.30;;;8.30;75.90;;;;;;4987239;28;20062;-62
2023/03/22 06:02:00;;;;;;;14.20;10.27;;;8.20;75.90;;;;;;4986772;28;20056;-63
2023/03/22 06:04:26;;;;;;;14.45;10.45;;;8.20;75.90;;;;;;4987714;28;20509;-62
2023/03/22 06:06:52;;;;;;;16.33;9.70;;;8.20;76.00;;;;;;4986222;28;20030;-62
2023/03/22 06:09:18;;;;;;;14.38;9.68;;;8.20;76.10;;;;;;4986417;28;20035;-62
2023/03/22 06:11:44;;;;;;;16.42;10.63;;;8.20;76.20;;;;;;4987749;28;20421;-63
2023/03/22 06:14:10;;;;;;;15.98;10.23;;;8.30;76.50;;;;;;4986152;28;20038;-62
2023/03/22 06:16:35;;;;;;;13.18;9.80;;;8.30;77.00;;;;;;4985783;28;20065;-62
2023/03/22 06:19:01;;;;;;;14.07;9.38;;;8.30;77.40;;;;;;4987374;28;20097;-63
2023/03/22 06:21:26;;;;;;;12.00;8.93;;;8.40;78.00;;;;;;4986356;28;20405;-62
2023/03/22 06:23:52;;;;;;;13.10;9.13;;;8.50;78.30;;;;;;4987807;28;20045;-61
2023/03/22 06:26:17;;;;;;;11.27;8.43;;;8.60;78.90;;;;;;4986197;28;20202;-61
2023/03/22 06:28:43;;;;;;;11.07;8.93;;;8.60;78.90;;;;;;4986149;28;20042;-62
2023/03/22 06:31:09;;;;;;;12.32;8.63;;;8.70;79.00;;;;;;4986998;28;20537;-61
2023/03/22 06:33:35;;;;;;;12.23;8.38;;;8.80;79.10;;;;;;4987512;28;20065;-61
2023/03/22 06:36:02;;;;;;;10.50;8.25;;;8.90;79.10;;;;;;4987230;28;20533;-61
2023/03/22 06:38:29;;;;;;;11.10;8.15;;;9.00;79.10;;;;;;4985076;28;20531;-62
2023/03/22 06:40:54;;;;;;;10.43;8.30;;;9.10;79.20;;;;;;4987106;28;20038;-62
2023/03/22 06:43:20;;;;;;;11.18;7.60;;;9.20;79.00;;;;;;4988587;28;20034;-61
2023/03/22 06:45:46;;;;;;;8.73;7.78;;;9.30;78.90;;;;;;4986953;28;20034;-61
2023/03/22 06:48:12;;;;;;;9.82;7.60;;;9.40;78.80;;;;;;4986419;28;20049;-61
2023/03/22 06:50:38;;;;;;;11.30;7.40;;;9.50;78.70;;;;;;4985342;28;20038;-60
2023/03/22 06:53:05;;;;;;;7.90;7.07;;;9.60;78.60;;;;;;4987809;28;20037;-61
2023/03/22 06:55:33;;;;;;;9.55;6.97;;;9.70;78.40;;;;;;4986619;28;20034;-61
2023/03/22 06:58:03;;;;;;;9.77;7.72;;;9.80;78.20;;;;;;4986407;28;20126;-61
2023/03/22 07:00:29;;;;;;;9.00;6.88;;;9.90;78.20;;;;;;4986661;28;20105;-62
2023/03/22 07:02:55;;;;;;;10.15;7.13;;;10.00;77.90;;;;;;4984995;28;20125;-61
2023/03/22 07:05:20;;;;;;;7.72;6.80;;;10.10;77.90;;;;;;4986684;28;20037;-62
2023/03/22 07:07:46;;;;;;;9.57;6.80;;;10.10;77.70;;;;;;4986732;28;20038;-61
2023/03/22 07:10:12;;;;;;;12.40;7.03;;;10.20;77.50;;;;;;4986979;28;20567;-60
2023/03/22 07:12:37;;;;;;;8.82;6.30;;;10.30;77.50;;;;;;4983539;28;20052;-62
2023/03/22 07:15:04;;;;;;;8.25;6.50;;;10.40;77.30;;;;;;4985531;28;20042;-62
2023/03/22 07:17:29;;;;;;;12.88;6.35;;;10.40;77.00;;;;;;4986426;28;20026;-60
2023/03/22 07:19:55;;;;;;;10.00;6.20;;;10.60;77.00;;;;;;4986042;28;20081;-61
2023/03/22 07:22:21;;;;;;;12.43;6.05;;;10.60;76.80;;;;;;4985953;28;20122;-60
2023/03/22 07:24:48;;;;;;;8.48;5.60;;;10.70;76.60;;;;;;4987405;28;20027;-60
2023/03/22 07:27:14;;;;;;;10.50;6.25;;;10.80;76.50;;;;;;4986722;28;20406;-60
2023/03/22 07:29:40;;;;;;;6.88;5.15;;;10.90;76.20;;;;;;4984236;28;20023;-61
2023/03/22 07:32:05;;;;;;;8.45;4.93;;;11.00;75.90;;;;;;4984756;28;20030;-62
2023/03/22 07:34:31;;;;;;;6.22;4.88;;;11.00;75.60;;;;;;4986026;28;20031;-62
2023/03/22 07:36:57;;;;;;;6.07;5.07;;;11.10;75.50;;;;;;4985111;28;20030;-61
2023/03/22 07:39:26;;;;;;;6.47;4.88;;;11.20;75.50;;;;;;4986336;28;20516;-62
2023/03/22 07:41:51;;;;;;;6.63;4.65;;;11.30;75.20;;;;;;4985692;28;20026;-62
2023/03/22 07:44:17;;;;;;;6.82;5.03;;;11.40;74.80;;;;;;4987178;28;20034;-61
2023/03/22 07:46:43;;;;;;;6.75;4.65;;;11.50;74.70;;;;;;4985277;28;20031;-62
2023/03/22 07:49:08;;;;;;;5.18;4.47;;;11.60;74.60;;;;;;4986789;28;20042;-62
2023/03/22 07:51:34;;;;;;;5.47;4.60;;;11.60;74.40;;;;;;4987190;28;20041;-61
2023/03/22 07:54:01;;;;;;;4.80;4.05;;;11.70;74.20;;;;;;4987564;28;20401;-62
2023/03/22 07:56:26;;;;;;;7.53;3.90;;;11.90;74.00;;;;;;4985805;28;20042;-63
2023/03/22 07:58:52;;;;;;;4.50;3.90;;;11.90;73.60;;;;;;4984512;28;20034;-62
2023/03/22 08:01:18;;;;;;;6.47;4.00;;;12.00;73.00;;;;;;4985997;28;20034;-62
2023/03/22 08:03:43;;;;;;;6.47;4.18;;;12.10;72.60;;;;;;4984998;28;20116;-62
2023/03/22 08:06:10;;;;;;;7.38;4.00;;;12.20;72.40;;;;;;4985232;28;20517;-61
2023/03/22 08:08:36;;;;;;;6.80;3.53;;;12.30;72.20;;;;;;4985058;28;20037;-62
2023/03/22 08:11:03;;;;;;;7.10;3.45;;;12.40;72.60;;;;;;4985262;28;20038;-62
2023/03/22 08:13:29;;;;;;;5.75;4.00;;;12.50;71.60;;;;;;4985306;28;20038;-59
2023/03/22 08:15:55;;;;;;;4.00;3.20;;;12.60;71.60;;;;;;4985415;28;20053;-62
2023/03/22 08:18:20;;;;;;;3.72;3.10;;;12.70;71.30;;;;;;4985543;28;20038;-60
2023/03/22 08:20:51;;;;;;;5.32;2.92;;;12.70;70.80;;;;;;4984268;28;20077;-61
2023/03/22 08:23:17;;;;;;;6.85;3.13;;;12.80;70.70;;;;;;4984840;28;20032;-62
2023/03/22 08:25:42;;;;;;;3.90;2.90;;;12.90;70.30;;;;;;4985534;28;20081;-62
2023/03/22 08:28:09;;;;;;;6.07;2.90;;;13.00;70.00;;;;;;4998627;28;20034;-62
2023/03/22 08:30:35;;;;;;;3.13;2.80;;;13.10;69.80;;;;;;4984010;28;20053;-62
2023/03/22 08:33:00;;;;;;;3.08;2.72;;;13.10;69.60;;;;;;4984038;28;20238;-62
2023/03/22 08:35:26;;;;;;;4.35;2.53;;;13.20;69.50;;;;;;4984387;28;20392;-62
2023/03/22 08:37:53;;;;;;;3.55;2.70;;;13.30;69.40;;;;;;4983107;28;20038;-62
2023/03/22 08:40:19;;;;;;;3.90;2.40;;;13.40;69.30;;;;;;4983702;28;20047;-60
2023/03/22 08:42:45;;;;;;;3.15;2.30;;;13.50;69.50;;;;;;4983407;28;20034;-63
2023/03/22 08:45:10;;;;;;;3.38;1.88;;;13.70;69.20;;;;;;4985689;28;20135;-62
2023/03/22 08:47:36;;;;;;;3.92;2.10;;;13.80;69.00;;;;;;4986056;28;20282;-62
2023/03/22 08:50:02;;;;;;;4.88;1.80;;;13.90;68.90;;;;;;4983138;28;20503;-62
2023/03/22 08:52:27;;;;;;;5.68;1.88;;;13.90;68.50;;;;;;4982367;28;20034;-62
2023/03/22 08:54:54;;;;;;;2.30;1.60;;;14.10;68.10;;;;;;4985185;28;20125;-61
2023/03/22 08:57:21;;;;;;;2.17;1.88;;;14.20;67.70;;;;;;4984976;28;20023;-62
2023/03/22 08:59:46;;;;;;;3.17;2.00;;;14.30;68.20;;;;;;4983923;28;20019;-61
2023/03/22 09:02:12;;;;;;;3.00;1.85;;;14.40;66.50;;;;;;4979307;28;20046;-61
2023/03/22 09:04:38;;;;;;;3.13;1.48;;;14.40;66.10;;;;;;4985278;28;20034;-62
2023/03/22 09:07:03;;;;;;;4.53;1.40;;;14.50;66.20;;;;;;4983037;28;20039;-60
2023/03/22 09:09:29;;;;;;;1.95;1.15;;;14.60;67.00;;;;;;4985621;28;20066;-62
2023/03/22 09:11:55;;;;;;;1.30;1.20;;;14.70;65.80;;;;;;4984842;28;20341;-62
2023/03/22 09:14:20;;;;;;;3.22;1.23;;;14.70;65.30;;;;;;4986213;28;20042;-61
2023/03/22 09:16:46;;;;;;;1.50;1.00;;;14.80;65.30;;;;;;4984529;28;20046;-59
2023/03/22 09:19:12;;;;;;;2.85;1.40;;;14.90;65.00;;;;;;4985610;28;20137;-62
2023/03/22 09:21:37;;;;;;;1.98;1.30;;;15.00;65.00;;;;;;4984276;28;20117;-63
2023/03/22 09:24:03;;;;;;;2.97;1.63;;;15.10;65.00;;;;;;4986699;28;20042;-63
2023/03/22 09:26:29;;;;;;;3.75;1.70;;;15.20;64.10;;;;;;4983276;28;20536;-62
2023/03/22 09:28:55;;;;;;;1.40;1.30;;;15.20;63.30;;;;;;4985930;28;20031;-63
2023/03/22 09:31:21;;;;;;;1.90;1.33;;;15.30;63.60;;;;;;4985350;28;20042;-63
2023/03/22 09:33:46;;;;;;;2.28;1.40;;;15.40;63.80;;;;;;4986009;28;20038;-62
2023/03/22 09:36:12;;;;;;;1.67;1.58;;;15.50;63.40;;;;;;4984659;28;20170;-62
2023/03/22 09:38:40;;;;;;;1.50;1.40;;;15.50;63.50;;;;;;4985521;28;20062;-62
2023/03/22 09:41:16;;;;;;;1.92;1.42;;;15.60;63.70;;;;;;4988791;28;20397;-62
2023/03/22 09:43:48;;;;;;;2.30;1.30;;;15.70;63.50;;;;;;4989331;28;20030;-62
2023/03/22 09:46:21;;;;;;;1.83;1.30;;;15.70;63.20;;;;;;4988730;28;20156;-62
2023/03/22 09:48:49;;;;;;;2.83;1.20;;;15.80;63.10;;;;;;4988933;28;20042;-61
2023/03/22 09:51:33;;;;;;;3.47;1.70;;;15.90;62.90;;;;;;4987991;28;20101;-60
2023/03/22 09:53:59;;;;;;;1.75;1.50;;;15.90;62.30;;;;;;4989014;28;20053;-62
2023/03/22 09:56:28;;;;;;;5.25;1.60;;;16.00;61.90;;;;;;4988768;28;20039;-62
2023/03/22 09:59:14;;;;;;;3.78;1.38;;;16.10;61.40;;;;;;4988274;28;20716;-62
2023/03/22 10:02:09;;;;;;;1.65;1.50;;;16.10;60.50;;;;;;4989063;28;20113;-60
2023/03/22 10:04:38;;;;;;;1.95;1.27;;;16.20;60.20;;;;;;4988476;28;20588;-62
2023/03/22 10:07:29;;;;;;;1.73;1.60;;;16.20;61.20;;;;;;4988079;28;20063;-62
2023/03/22 10:09:57;;;;;;;5.70;1.48;;;16.30;60.20;;;;;;4989363;28;20375;-62
2023/03/22 10:12:33;;;;;;;1.85;1.58;;;16.40;59.40;;;;;;4986324;28;20039;-62
2023/03/22 10:15:03;;;;;;;2.78;1.45;;;16.40;59.60;;;;;;4987673;28;20116;-61
2023/03/22 10:17:30;;;;;;;3.45;1.83;;;16.50;59.90;;;;;;4989183;28;20026;-62
2023/03/22 10:20:07;;;;;;;2.92;1.85;;;16.60;59.80;;;;;;4987656;28;20084;-60
2023/03/22 10:22:36;;;;;;;2.50;1.58;;;16.60;59.50;;;;;;4987377;28;20442;-62
2023/03/22 10:25:06;;;;;;;2.38;1.58;;;16.70;59.20;;;;;;4987476;28;20097;-62
2023/03/22 10:27:33;;;;;;;4.20;1.70;;;16.80;59.00;;;;;;4987805;28;20049;-62
2023/03/22 10:30:06;;;;;;;2.95;1.65;;;16.90;58.80;;;;;;4985846;28;20471;-63
2023/03/22 10:32:50;;;;;;;1.60;1.50;;;16.90;58.50;;;;;;4987545;28;20034;-62
2023/03/22 10:35:16;;;;;;;2.50;1.85;;;17.00;58.40;;;;;;4988601;28;20034;-61
2023/03/22 10:37:44;;;;;;;6.10;1.80;;;17.10;58.30;;;;;;4989596;28;20029;-62
2023/03/22 10:40:22;;;;;;;4.60;1.70;;;17.20;57.40;;;;;;4989475;28;20137;-61
2023/03/22 10:42:59;;;;;;;2.03;1.55;;;17.30;57.40;;;;;;4987746;28;20044;-60
2023/03/22 10:45:26;;;;;;;2.35;1.70;;;17.40;57.10;;;;;;4986713;28;20057;-61
2023/03/22 10:48:04;;;;;;;2.53;1.33;;;17.40;57.50;;;;;;4988351;28;21813;-61
2023/03/22 10:50:35;;;;;;;2.08;1.50;;;17.50;56.40;;;;;;4986753;28;20084;-61
2023/03/22 10:53:10;;;;;;;6.18;1.42;;;17.60;56.30;;;;;;4986197;28;20037;-62
2023/03/22 10:55:43;;;;;;;3.63;1.45;;;17.70;56.20;;;;;;4988500;28;20485;-61
2023/03/22 10:58:15;;;;;;;6.25;1.40;;;17.70;55.90;;;;;;4985991;28;20035;-61
2023/03/22 11:00:52;;;;;;;2.92;1.67;;;17.80;55.70;;;;;;4986467;28;20030;-61
2023/03/22 11:03:36;;;;;;;2.50;1.38;;;17.90;55.30;;;;;;4988059;28;20042;-63
2023/03/22 11:06:09;;;;;;;1.80;1.50;;;17.90;54.90;;;;;;4985879;28;20130;-62
2023/03/22 11:08:42;;;;;;;2.10;1.42;;;18.00;55.10;;;;;;4986815;28;20117;-63
2023/03/22 11:11:22;;;;;;;1.73;1.60;;;18.00;55.30;;;;;;4984709;28;20070;-62
2023/03/22 11:13:52;;;;;;;3.38;1.70;;;18.10;54.10;;;;;;4987272;28;20035;-62
2023/03/22 11:16:18;;;;;;;5.22;1.77;;;18.10;55.00;;;;;;4986278;28;20030;-60
2023/03/22 11:18:44;;;;;;;2.45;1.40;;;18.10;55.30;;;;;;4986993;28;20142;-63
2023/03/22 11:21:13;;;;;;;3.05;1.30;;;18.20;55.00;;;;;;4986768;28;20077;-62
2023/03/22 11:23:45;;;;;;;2.10;1.60;;;18.20;54.70;;;;;;4986416;28;20406;-61
2023/03/22 11:26:13;;;;;;;7.82;1.63;;;18.30;53.40;;;;;;4986702;28;20042;-63
2023/03/22 11:28:46;;;;;;;2.08;1.23;;;18.40;54.20;;;;;;4986859;28;20031;-63
2023/03/22 11:31:23;;;;;;;2.03;1.58;;;18.40;53.80;;;;;;4984799;28;20544;-62
2023/03/22 11:33:59;;;;;;;2.53;1.75;;;18.50;52.50;;;;;;4987678;28;20038;-62
2023/03/22 11:36:25;;;;;;;2.20;2.00;;;18.50;52.10;;;;;;4985030;28;20038;-62
2023/03/22 11:39:06;;;;;;;2.90;1.98;;;18.50;53.00;;;;;;4986240;28;20066;-61
2023/03/22 11:41:36;;;;;;;1.90;1.50;;;18.50;53.00;;;;;;4986876;28;20198;-60
2023/03/22 11:44:05;;;;;;;2.60;1.40;;;18.50;52.90;;;;;;4987952;28;20034;-62
2023/03/22 11:46:32;;;;;;;3.80;1.48;;;18.60;53.10;;;;;;4987747;28;20034;-62
2023/03/22 11:49:01;;;;;;;3.83;1.40;;;18.60;53.10;;;;;;4987882;28;20049;-62
2023/03/22 11:51:32;;;;;;;3.55;1.30;;;18.70;53.20;;;;;;4987145;28;20398;-60
2023/03/22 11:54:30;;;;;;;1.17;1.10;;;18.70;52.50;;;;;;4987639;28;20153;-61
2023/03/22 11:57:09;;;;;;;2.30;1.15;;;18.80;51.40;;;;;;4985113;28;20034;-62
2023/03/22 12:00:18;;;;;;;2.63;1.50;;;19.00;51.80;;;;;;4984900;28;20034;-63
2023/03/22 12:02:47;;;;;;;1.52;1.30;;;19.00;50.60;;;;;;4986384;28;20406;-62
2023/03/22 12:05:26;;;;;;;2.00;1.30;;;19.00;50.80;;;;;;4986515;28;20445;-63
2023/03/22 12:08:00;;;;;;;2.22;1.60;;;19.10;50.10;;;;;;4986856;28;20042;-61
2023/03/22 12:10:37;;;;;;;1.38;1.27;;;19.10;50.40;;;;;;4985414;28;20042;-62
2023/03/22 12:13:17;;;;;;;1.40;1.23;;;19.10;50.20;;;;;;4985155;28;20035;-63
2023/03/22 12:15:49;;;;;;;4.68;1.48;;;19.10;48.40;;;;;;4986286;28;20274;-62
2023/03/22 12:18:27;;;;;;;4.72;1.50;;;19.10;49.50;;;;;;4985185;28;20043;-63
2023/03/22 12:20:57;;;;;;;2.97;1.52;;;19.10;49.10;;;;;;4983999;28;20031;-62
2023/03/22 12:23:26;;;;;;;1.50;1.40;;;19.10;50.50;;;;;;4985768;28;20575;-62
2023/03/22 12:26:04;;;;;;;1.40;1.30;;;19.20;50.20;;;;;;4984443;28;20061;-61
2023/03/22 12:28:55;;;;;;;1.98;1.40;;;19.20;49.60;;;;;;4985236;28;20568;-61
2023/03/22 12:31:31;;;;;;;2.45;1.55;;;19.30;49.90;;;;;;4984198;28;20051;-63
2023/03/22 12:34:05;;;;;;;1.65;1.55;;;19.30;50.00;;;;;;4986531;28;20092;-62
2023/03/22 12:36:41;;;;;;;2.53;1.70;;;19.40;49.40;;;;;;4983380;28;20479;-63
2023/03/22 12:39:12;;;;;;;1.73;1.50;;;19.40;49.60;;;;;;4986281;28;20030;-62
2023/03/22 12:41:46;;;;;;;2.97;1.60;;;19.40;49.20;;;;;;4985513;28;20061;-62
2023/03/22 12:44:36;;;;;;;2.00;1.37;;;19.50;49.70;;;;;;4986178;28;20043;-62
2023/03/22 12:47:05;;;;;;;2.42;1.33;;;19.50;49.30;;;;;;4984872;28;20038;-63
2023/03/22 12:49:51;;;;;;;1.65;1.20;;;19.60;49.30;;;;;;4985428;28;20062;-63
2023/03/22 12:52:19;;;;;;;1.80;1.40;;;19.60;48.30;;;;;;4984454;28;20058;-62
2023/03/22 12:54:48;;;;;;;1.83;1.50;;;19.70;48.60;;;;;;4985386;28;20026;-63
2023/03/22 12:57:15;;;;;;;1.13;1.00;;;19.70;48.50;;;;;;4986988;28;20030;-63
2023/03/22 12:59:47;;;;;;;3.33;1.40;;;19.70;48.40;;;;;;4985369;28;20031;-63
2023/03/22 13:02:28;;;;;;;1.20;1.10;;;19.70;48.40;;;;;;4985952;28;20035;-63